Terminal Aerodrome Forecast
Issued by NWS Bismarck, ND

Home | Current Version | Previous Version | Text Only | Print | Product List | Glossary Off
Versions: 1 2 3 4 5 6 7 8 9 10 11 12 13 14 15

000
FTUS43 KBIS 222338
TAFBIS
TAF
KBIS 222338Z 2300/2324 14007KT P6SM SCT100
     FM231200 11008KT P6SM SCT035 OVC080
     FM231800 14012KT P6SM -SHRA BKN015 OVC025=

USA.gov is the U.S. government's official web portal to all federal, state and local government web resources and services.